LGHI

Details ICAO LGHI (JKH)
Name Chios
Region Greece
Timezone Europe/Athens (UTC+2.0)
Plans Departing 30
Arriving 38
Stats Elevation 18 ft / 5 m (AMSL)
Location 38.343175° 26.140575°
Runways 1
Magnetic Variation 4.787° E
Sunrise 2017-12-11 05:23:44 UTC / 2017-12-11 07:23:44 Local
Sunset 2017-12-11 14:56:30 UTC / 2017-12-11 16:56:30 Local
Advertisement - Login to hide

Runways

ID Width Length Bearing (true) Bearing (mag) Surface Threshold Offset Overrun Length
01 98 ft / 30 m 4,966 ft / 1,514 m 9.51° 4.72° Asphalt 393 ft / 120 m 0 ft / 0 m
19 98 ft / 30 m 4,966 ft / 1,514 m 189.51° 184.72° Asphalt 262 ft / 80 m 0 ft / 0 m

Map

Weather


0- 5 10 15 20 25 30 35+ Temperature / ° C

Clouds and Precipitation
Forecast for 2017-12-11 18:00 UTC. Updated 38 minutes ago

Ground ~20,000 ft ~40,000 ft Winds

METAR

LGHI 111250Z 20016KT 9999 FEW025 17/05 Q1023

TAF

Not found

Frequencies

Tower 122.70 MHz CHIOS TWR
Warning: Do not use this data for real-world aviation or navigation. No guarantee of current accuracy is given.